Time;durP1;ratioP1;P1;durP2;ratioP2;P2;SDS_P1;SDS_P2;PMS_P1;PMS_P2;Temp;Humidity;BMP_temperature;BMP_pressure;BME280_temperature;BME280_humidity;BME280_pressure;Samples;Min_cycle;Max_cycle;Signal;HPM_P1;HPM_P2
2024/01/15 00:01:51;;;;;;;;;;;17.40;45.90;;;;;;1566782;74;548;-78
2024/01/15 00:03:53;;;;;;;;;;;17.20;45.70;;;;;;1571081;74;734;-76
2024/01/15 00:05:54;;;;;;;;;;;17.20;45.70;;;;;;1572757;74;707;-76
2024/01/15 00:07:56;;;;;;;;;;;17.20;45.70;;;;;;1564190;74;1153;-76
2024/01/15 00:09:58;;;;;;;;;;;17.20;45.60;;;;;;1565639;74;764;-79
2024/01/15 00:12:00;;;;;;;;;;;17.10;45.60;;;;;;1566643;74;710;-79
2024/01/15 00:14:03;;;;;;;;;;;17.20;45.60;;;;;;1572041;74;582;-79
2024/01/15 00:16:05;;;;;;;;;;;17.20;45.60;;;;;;1566178;74;1910;-80
2024/01/15 00:18:07;;;;;;;;;;;17.20;45.60;;;;;;1565051;74;1163;-77
2024/01/15 00:20:09;;;;;;;;;;;17.10;45.40;;;;;;1565598;74;744;-77
2024/01/15 00:22:11;;;;;;;;;;;17.10;45.50;;;;;;1566498;74;718;-78
2024/01/15 00:24:12;;;;;;;;;;;17.10;45.50;;;;;;1558682;74;718;-79
2024/01/15 00:26:15;;;;;;;;;;;17.20;45.50;;;;;;1566997;74;657;-76
2024/01/15 00:28:17;;;;;;;;;;;17.20;45.30;;;;;;1552170;74;1087;-78
2024/01/15 00:30:19;;;;;;;;;;;17.10;45.30;;;;;;1557829;74;783;-78
2024/01/15 00:32:21;;;;;;;;;;;17.10;45.30;;;;;;1570896;74;756;-77
2024/01/15 00:34:22;;;;;;;;;;;17.10;45.30;;;;;;1569400;74;705;-79
2024/01/15 00:36:24;;;;;;;;;;;17.10;45.30;;;;;;1569847;74;1920;-77
2024/01/15 00:38:26;;;;;;;;;;;17.20;45.30;;;;;;1572763;74;1184;-79
2024/01/15 00:40:28;;;;;;;;;;;17.10;45.20;;;;;;1567586;74;741;-79
2024/01/15 00:42:30;;;;;;;;;;;17.20;45.20;;;;;;1571751;74;697;-79
2024/01/15 00:44:32;;;;;;;;;;;17.10;45.10;;;;;;1573836;74;781;-78
2024/01/15 00:46:34;;;;;;;;;;;17.20;45.20;;;;;;1567887;74;1117;-79
2024/01/15 00:48:36;;;;;;;;;;;17.10;45.10;;;;;;1571378;75;691;-73
2024/01/15 00:50:38;;;;;;;;;;;17.20;45.20;;;;;;1571359;74;580;-75
2024/01/15 00:52:40;;;;;;;;;;;17.10;45.10;;;;;;1567134;74;692;-79
2024/01/15 00:54:42;;;;;;;;;;;17.10;45.10;;;;;;1561074;75;722;-76
2024/01/15 00:56:44;;;;;;;;;;;17.10;45.00;;;;;;1562624;74;1940;-79
2024/01/15 00:58:46;;;;;;;;;;;17.10;45.00;;;;;;1568603;74;784;-73
2024/01/15 01:00:47;;;;;;;;;;;17.10;45.00;;;;;;1575219;74;701;-78
2024/01/15 01:02:49;;;;;;;;;;;17.10;45.00;;;;;;1574086;74;809;-76
2024/01/15 01:04:51;;;;;;;;;;;17.10;45.00;;;;;;1570152;74;716;-77
2024/01/15 01:06:53;;;;;;;;;;;17.10;45.00;;;;;;1570757;74;1169;-78
2024/01/15 01:08:55;;;;;;;;;;;17.10;44.90;;;;;;1578008;74;725;-78
2024/01/15 01:10:57;;;;;;;;;;;17.10;45.00;;;;;;1561003;74;678;-80
2024/01/15 01:12:59;;;;;;;;;;;17.10;44.90;;;;;;1574904;74;720;-79
2024/01/15 01:15:00;;;;;;;;;;;17.10;44.80;;;;;;1570361;74;713;-77
2024/01/15 01:17:02;;;;;;;;;;;17.10;44.80;;;;;;1570110;74;1938;-80
2024/01/15 01:19:05;;;;;;;;;;;17.10;44.80;;;;;;1563214;74;627;-79
2024/01/15 01:21:07;;;;;;;;;;;17.10;44.70;;;;;;1563630;74;799;-76
2024/01/15 01:23:09;;;;;;;;;;;17.00;44.60;;;;;;1569824;74;746;-79
2024/01/15 01:25:11;;;;;;;;;;;17.10;44.70;;;;;;1561789;74;637;-79
2024/01/15 01:27:13;;;;;;;;;;;17.10;44.60;;;;;;1569052;74;1100;-79
2024/01/15 01:29:15;;;;;;;;;;;17.10;44.60;;;;;;1571668;74;1497;-77
2024/01/15 01:31:17;;;;;;;;;;;17.10;44.50;;;;;;1559407;74;785;-79
2024/01/15 01:33:18;;;;;;;;;;;17.10;44.50;;;;;;1568520;74;767;-79
2024/01/15 01:35:20;;;;;;;;;;;17.10;44.50;;;;;;1567998;74;706;-76
2024/01/15 01:37:22;;;;;;;;;;;17.00;44.40;;;;;;1578178;74;1938;-76
2024/01/15 01:39:24;;;;;;;;;;;17.10;44.50;;;;;;1571546;74;570;-76
2024/01/15 01:41:26;;;;;;;;;;;17.10;44.50;;;;;;1564580;74;673;-79
2024/01/15 01:43:28;;;;;;;;;;;17.10;44.30;;;;;;1554283;74;757;-79
2024/01/15 01:45:30;;;;;;;;;;;17.10;44.40;;;;;;1568091;74;604;-77
2024/01/15 01:47:32;;;;;;;;;;;17.00;44.30;;;;;;1555632;75;1220;-76
2024/01/15 01:49:35;;;;;;;;;;;17.10;44.30;;;;;;1557347;74;725;-79
2024/01/15 01:51:38;;;;;;;;;;;17.00;44.20;;;;;;1565476;75;689;-79
2024/01/15 01:53:41;;;;;;;;;;;17.10;44.20;;;;;;1576753;74;673;-80
2024/01/15 01:55:42;;;;;;;;;;;17.00;44.20;;;;;;1570810;74;684;-76
2024/01/15 01:57:44;;;;;;;;;;;17.10;44.20;;;;;;1565971;74;1946;-77
2024/01/15 01:59:46;;;;;;;;;;;17.00;44.00;;;;;;1567596;74;717;-76
2024/01/15 02:01:48;;;;;;;;;;;17.00;43.90;;;;;;1574280;74;732;-77
2024/01/15 02:03:50;;;;;;;;;;;17.00;44.00;;;;;;1570685;74;777;-79
2024/01/15 02:05:52;;;;;;;;;;;17.00;43.90;;;;;;1566845;75;768;-76
2024/01/15 02:07:54;;;;;;;;;;;17.00;44.10;;;;;;1558334;75;1159;-77
2024/01/15 02:09:56;;;;;;;;;;;17.10;44.10;;;;;;1557735;74;693;-77
2024/01/15 02:11:58;;;;;;;;;;;17.00;43.90;;;;;;1566623;74;720;-75
2024/01/15 02:14:00;;;;;;;;;;;17.10;43.90;;;;;;1574524;75;834;-79
2024/01/15 02:16:02;;;;;;;;;;;17.00;43.80;;;;;;1571759;74;575;-77
2024/01/15 02:18:04;;;;;;;;;;;17.00;43.60;;;;;;1568414;74;1934;-74
2024/01/15 02:20:06;;;;;;;;;;;16.80;43.50;;;;;;1566819;74;717;-79
2024/01/15 02:22:08;;;;;;;;;;;17.00;43.60;;;;;;1570449;74;725;-77
2024/01/15 02:24:10;;;;;;;;;;;17.00;43.70;;;;;;1561875;75;715;-77
2024/01/15 02:26:12;;;;;;;;;;;17.00;43.60;;;;;;1566640;75;1521;-76
2024/01/15 02:28:15;;;;;;;;;;;17.00;43.60;;;;;;1560670;75;1088;-77
2024/01/15 02:30:16;;;;;;;;;;;17.00;43.60;;;;;;1568275;74;600;-76
2024/01/15 02:32:18;;;;;;;;;;;17.00;43.60;;;;;;1571701;74;669;-79
2024/01/15 02:34:20;;;;;;;;;;;17.00;43.50;;;;;;1564425;74;733;-80
2024/01/15 02:36:22;;;;;;;;;;;17.00;43.40;;;;;;1560252;74;618;-76
2024/01/15 02:38:24;;;;;;;;;;;17.00;43.60;;;;;;1570375;74;1963;-78
2024/01/15 02:40:26;;;;;;;;;;;17.00;43.40;;;;;;1570680;74;582;-77
2024/01/15 02:42:28;;;;;;;;;;;17.00;43.40;;;;;;1563764;74;768;-76
2024/01/15 02:44:30;;;;;;;;;;;17.00;43.40;;;;;;1565364;74;628;-77
2024/01/15 02:46:31;;;;;;;;;;;17.00;43.30;;;;;;1569196;74;1160;-77
2024/01/15 02:48:34;;;;;;;;;;;17.00;43.40;;;;;;1568445;74;652;-78
2024/01/15 02:50:36;;;;;;;;;;;17.00;43.30;;;;;;1562613;74;693;-79
2024/01/15 02:52:38;;;;;;;;;;;17.00;43.30;;;;;;1565874;74;695;-77
2024/01/15 02:54:40;;;;;;;;;;;17.00;43.40;;;;;;1568386;74;789;-77
2024/01/15 02:56:42;;;;;;;;;;;17.00;43.20;;;;;;1567275;74;1083;-77
2024/01/15 02:58:44;;;;;;;;;;;17.00;43.20;;;;;;1564299;74;1934;-77
2024/01/15 03:00:46;;;;;;;;;;;17.00;43.20;;;;;;1566939;74;728;-79
2024/01/15 03:02:48;;;;;;;;;;;17.00;43.20;;;;;;1568876;74;713;-79
2024/01/15 03:04:50;;;;;;;;;;;17.00;43.10;;;;;;1554119;74;799;-79
2024/01/15 03:06:52;;;;;;;;;;;17.00;43.20;;;;;;1570330;74;1158;-79
2024/01/15 03:08:54;;;;;;;;;;;17.00;43.10;;;;;;1561373;74;665;-77
2024/01/15 03:10:56;;;;;;;;;;;17.00;43.10;;;;;;1562840;74;647;-79
2024/01/15 03:12:58;;;;;;;;;;;17.00;43.20;;;;;;1562957;74;688;-79
2024/01/15 03:15:00;;;;;;;;;;;17.00;43.10;;;;;;1570366;74;695;-77
2024/01/15 03:17:02;;;;;;;;;;;17.00;43.00;;;;;;1565304;74;1128;-77
2024/01/15 03:19:03;;;;;;;;;;;17.00;43.10;;;;;;1565329;74;1987;-72
2024/01/15 03:21:06;;;;;;;;;;;17.00;43.00;;;;;;1559718;74;715;-78
2024/01/15 03:23:08;;;;;;;;;;;17.00;43.00;;;;;;1563154;74;1413;-80
2024/01/15 03:25:10;;;;;;;;;;;17.00;42.90;;;;;;1572574;74;688;-76
2024/01/15 03:27:12;;;;;;;;;;;17.00;42.90;;;;;;1562680;74;1121;-76
2024/01/15 03:29:13;;;;;;;;;;;17.00;42.90;;;;;;1569150;74;606;-79
2024/01/15 03:31:15;;;;;;;;;;;17.00;42.90;;;;;;1565148;75;605;-78
2024/01/15 03:33:17;;;;;;;;;;;17.00;42.90;;;;;;1570515;74;805;-75
2024/01/15 03:35:19;;;;;;;;;;;17.00;42.80;;;;;;1567697;74;718;-74
2024/01/15 03:37:21;;;;;;;;;;;17.00;42.80;;;;;;1568190;74;1938;-76
2024/01/15 03:39:23;;;;;;;;;;;17.00;42.80;;;;;;1557962;74;675;-77
2024/01/15 03:41:25;;;;;;;;;;;17.00;42.80;;;;;;1560372;74;675;-78
2024/01/15 03:43:27;;;;;;;;;;;16.90;42.80;;;;;;1574045;74;702;-77
2024/01/15 03:45:29;;;;;;;;;;;17.00;42.80;;;;;;1572235;75;731;-78
2024/01/15 03:47:31;;;;;;;;;;;17.00;42.80;;;;;;1555466;74;1150;-77
2024/01/15 03:49:33;;;;;;;;;;;17.00;42.60;;;;;;1572759;74;647;-77
2024/01/15 03:51:35;;;;;;;;;;;16.90;42.70;;;;;;1560234;74;714;-79
2024/01/15 03:53:38;;;;;;;;;;;16.90;42.70;;;;;;1566042;74;579;-78
2024/01/15 03:55:40;;;;;;;;;;;17.00;42.70;;;;;;1558895;74;667;-79
2024/01/15 03:57:42;;;;;;;;;;;17.00;42.60;;;;;;1568834;74;1944;-76
2024/01/15 03:59:47;;;;;;;;;;;16.90;42.60;;;;;;1573056;74;785;-80
2024/01/15 04:01:53;;;;;;;;;;;16.90;42.60;;;;;;1573538;74;1658;-79
2024/01/15 04:03:55;;;;;;;;;;;17.00;42.60;;;;;;1558538;74;681;-78
2024/01/15 04:05:57;;;;;;;;;;;16.90;42.60;;;;;;1562568;74;704;-79
2024/01/15 04:07:59;;;;;;;;;;;16.90;42.60;;;;;;1568593;74;1130;-77
2024/01/15 04:10:01;;;;;;;;;;;17.00;42.60;;;;;;1568585;74;667;-81
2024/01/15 04:12:02;;;;;;;;;;;16.90;42.60;;;;;;1568010;74;721;-79
2024/01/15 04:14:04;;;;;;;;;;;16.90;42.60;;;;;;1572109;74;623;-80
2024/01/15 04:16:06;;;;;;;;;;;17.00;42.60;;;;;;1573833;74;738;-79
2024/01/15 04:18:08;;;;;;;;;;;16.90;42.50;;;;;;1567953;74;1939;-77
2024/01/15 04:20:10;;;;;;;;;;;16.90;42.50;;;;;;1573444;74;641;-77
2024/01/15 04:22:16;;;;;;;;;;;16.80;42.30;;;;;;1567096;74;702;-80
2024/01/15 04:24:17;;;;;;;;;;;16.90;42.30;;;;;;1550070;75;863;-78
2024/01/15 04:26:19;;;;;;;;;;;16.90;42.30;;;;;;1564415;74;705;-80
2024/01/15 04:28:21;;;;;;;;;;;16.90;42.50;;;;;;1561013;74;1079;-78
2024/01/15 04:30:23;;;;;;;;;;;16.80;42.20;;;;;;1568573;74;696;-80
2024/01/15 04:32:25;;;;;;;;;;;16.90;42.30;;;;;;1576230;74;717;-78
2024/01/15 04:34:27;;;;;;;;;;;16.90;42.20;;;;;;1567990;74;715;-79
2024/01/15 04:36:29;;;;;;;;;;;17.00;42.30;;;;;;1565554;74;715;-77
2024/01/15 04:38:32;;;;;;;;;;;16.90;42.10;;;;;;1567380;74;1960;-78
2024/01/15 04:40:34;;;;;;;;;;;16.90;42.10;;;;;;1566310;74;745;-79
2024/01/15 04:42:36;;;;;;;;;;;16.90;42.20;;;;;;1570534;74;602;-78
2024/01/15 04:44:38;;;;;;;;;;;17.00;41.90;;;;;;1561843;74;694;-80
2024/01/15 04:46:39;;;;;;;;;;;16.90;41.90;;;;;;1564602;74;1144;-77
2024/01/15 04:48:41;;;;;;;;;;;16.90;41.70;;;;;;1560206;74;763;-76
2024/01/15 04:50:43;;;;;;;;;;;16.90;41.70;;;;;;1560385;74;710;-76
2024/01/15 04:52:45;;;;;;;;;;;17.70;42.20;;;;;;1562897;74;709;-77
2024/01/15 04:54:47;;;;;;;;;;;16.90;41.80;;;;;;1563649;74;708;-79
2024/01/15 04:56:49;;;;;;;;;;;16.90;41.70;;;;;;1571886;74;1149;-79
2024/01/15 04:58:51;;;;;;;;;;;17.00;41.70;;;;;;1566242;74;1946;-79
2024/01/15 05:00:54;;;;;;;;;;;16.90;41.60;;;;;;1559171;74;798;-80
2024/01/15 05:02:56;;;;;;;;;;;16.90;41.50;;;;;;1567865;74;757;-80
2024/01/15 05:04:58;;;;;;;;;;;16.90;41.50;;;;;;1574197;74;730;-79
2024/01/15 05:06:59;;;;;;;;;;;17.00;41.40;;;;;;1564912;74;1176;-79
2024/01/15 05:09:03;;;;;;;;;;;16.90;41.50;;;;;;1564541;74;837;-80
2024/01/15 05:11:04;;;;;;;;;;;16.90;41.40;;;;;;1574083;74;732;-80
2024/01/15 05:13:06;;;;;;;;;;;17.00;41.40;;;;;;1553747;74;604;-80
2024/01/15 05:15:09;;;;;;;;;;;17.00;41.20;;;;;;1572353;74;1583;-80
2024/01/15 05:17:11;;;;;;;;;;;17.00;41.20;;;;;;1553205;74;1128;-79
2024/01/15 05:19:13;;;;;;;;;;;16.90;41.20;;;;;;1567253;74;1931;-81
2024/01/15 05:21:15;;;;;;;;;;;17.00;41.20;;;;;;1566067;74;659;-78
2024/01/15 05:23:17;;;;;;;;;;;17.00;41.20;;;;;;1558926;74;686;-77
2024/01/15 05:25:19;;;;;;;;;;;17.00;41.10;;;;;;1552788;74;623;-77
2024/01/15 05:27:20;;;;;;;;;;;17.00;41.10;;;;;;1575634;74;1123;-77
2024/01/15 05:29:23;;;;;;;;;;;17.00;41.10;;;;;;1567938;74;701;-78
2024/01/15 05:31:24;;;;;;;;;;;17.00;41.00;;;;;;1558591;74;590;-75
2024/01/15 05:33:26;;;;;;;;;;;16.90;40.90;;;;;;1556129;74;716;-76
2024/01/15 05:35:28;;;;;;;;;;;17.00;40.90;;;;;;1569079;74;712;-75
2024/01/15 05:37:30;;;;;;;;;;;16.90;41.00;;;;;;1563587;74;1208;-75
2024/01/15 05:39:32;;;;;;;;;;;16.90;41.10;;;;;;1558927;74;1916;-77
2024/01/15 05:41:34;;;;;;;;;;;16.90;40.90;;;;;;1560893;74;747;-75
2024/01/15 05:43:36;;;;;;;;;;;17.00;40.90;;;;;;1566703;75;758;-78
2024/01/15 05:45:38;;;;;;;;;;;16.90;40.90;;;;;;1571004;74;737;-79
2024/01/15 05:47:40;;;;;;;;;;;17.00;41.00;;;;;;1569221;74;1154;-77
2024/01/15 05:49:42;;;;;;;;;;;16.90;41.00;;;;;;1560335;74;683;-77
2024/01/15 05:51:44;;;;;;;;;;;16.90;40.80;;;;;;1569668;74;573;-78
2024/01/15 05:53:46;;;;;;;;;;;17.00;40.90;;;;;;1560217;75;734;-77
2024/01/15 05:55:48;;;;;;;;;;;17.00;41.00;;;;;;1569785;74;737;-79
2024/01/15 05:57:50;;;;;;;;;;;17.00;40.90;;;;;;1561853;74;1138;-79
2024/01/15 05:59:52;;;;;;;;;;;16.90;40.90;;;;;;1563048;74;1952;-75
2024/01/15 06:01:53;;;;;;;;;;;17.00;41.00;;;;;;1570220;74;711;-78
2024/01/15 06:03:55;;;;;;;;;;;17.00;41.00;;;;;;1559119;74;741;-74
2024/01/15 06:05:57;;;;;;;;;;;17.00;41.00;;;;;;1560343;74;715;-73
2024/01/15 06:07:59;;;;;;;;;;;16.90;40.80;;;;;;1568107;74;1201;-79
2024/01/15 06:10:01;;;;;;;;;;;16.90;41.00;;;;;;1560320;74;623;-75
2024/01/15 06:12:03;;;;;;;;;;;16.90;41.00;;;;;;1560362;74;1512;-80
2024/01/15 06:14:05;;;;;;;;;;;17.00;40.90;;;;;;1562852;75;753;-79
2024/01/15 06:16:15;;;;;;;;;;;17.00;40.90;;;;;;1564920;74;750;-79
2024/01/15 06:18:17;;;;;;;;;;;16.90;41.00;;;;;;1566258;74;1934;-79
2024/01/15 06:20:19;;;;;;;;;;;17.00;41.00;;;;;;1571976;74;713;-78
2024/01/15 06:22:21;;;;;;;;;;;16.90;40.90;;;;;;1565698;74;614;-78
2024/01/15 06:24:22;;;;;;;;;;;17.00;41.00;;;;;;1552975;74;687;-79
2024/01/15 06:26:24;;;;;;;;;;;16.90;41.00;;;;;;1567489;74;583;-78
2024/01/15 06:28:26;;;;;;;;;;;16.90;40.90;;;;;;1572892;74;1112;-78
2024/01/15 06:30:29;;;;;;;;;;;16.90;41.00;;;;;;1563779;74;675;-78
2024/01/15 06:32:31;;;;;;;;;;;16.90;41.00;;;;;;1573851;74;605;-75
2024/01/15 06:34:33;;;;;;;;;;;16.90;40.90;;;;;;1553190;74;700;-79
2024/01/15 06:36:35;;;;;;;;;;;17.00;40.90;;;;;;1576249;74;1165;-79
2024/01/15 06:38:37;;;;;;;;;;;16.90;40.90;;;;;;1559998;74;1936;-79
2024/01/15 06:40:41;;;;;;;;;;;17.00;40.90;;;;;;1560097;74;731;-78
2024/01/15 06:42:42;;;;;;;;;;;16.90;41.00;;;;;;1555611;74;1079;-77
2024/01/15 06:44:44;;;;;;;;;;;16.90;41.00;;;;;;1565388;74;610;-76
2024/01/15 06:46:46;;;;;;;;;;;17.00;40.90;;;;;;1556373;74;1173;-79
2024/01/15 06:48:48;;;;;;;;;;;16.90;40.90;;;;;;1563850;74;634;-77
2024/01/15 06:50:50;;;;;;;;;;;16.90;40.90;;;;;;1561315;74;578;-77
2024/01/15 06:52:52;;;;;;;;;;;17.00;41.00;;;;;;1568286;74;705;-79
2024/01/15 06:54:54;;;;;;;;;;;16.90;40.90;;;;;;1570890;74;773;-78
2024/01/15 06:56:55;;;;;;;;;;;17.00;40.90;;;;;;1572135;74;1146;-76
2024/01/15 06:58:57;;;;;;;;;;;16.90;40.80;;;;;;1555584;74;1943;-80
2024/01/15 07:00:59;;;;;;;;;;;16.90;40.80;;;;;;1566326;74;730;-78
2024/01/15 07:03:02;;;;;;;;;;;17.00;40.80;;;;;;1564694;75;731;-79
2024/01/15 07:05:05;;;;;;;;;;;17.00;40.90;;;;;;1561556;74;713;-79
2024/01/15 07:07:06;;;;;;;;;;;16.90;40.80;;;;;;1567752;74;1530;-78
2024/01/15 07:09:09;;;;;;;;;;;16.90;40.70;;;;;;1572513;74;705;-77
2024/01/15 07:11:10;;;;;;;;;;;17.00;40.80;;;;;;1565873;74;816;-79
2024/01/15 07:13:12;;;;;;;;;;;16.90;40.90;;;;;;1566136;74;666;-78
2024/01/15 07:15:15;;;;;;;;;;;16.90;40.90;;;;;;1564348;74;621;-78
2024/01/15 07:17:17;;;;;;;;;;;16.90;40.70;;;;;;1553337;75;1148;-80
2024/01/15 07:19:19;;;;;;;;;;;16.90;40.70;;;;;;1572075;74;1926;-78
2024/01/15 07:21:21;;;;;;;;;;;17.00;40.80;;;;;;1565330;75;722;-78
2024/01/15 07:23:23;;;;;;;;;;;17.00;40.80;;;;;;1573922;74;818;-76
2024/01/15 07:25:26;;;;;;;;;;;16.90;40.70;;;;;;1563112;74;725;-78
2024/01/15 07:27:28;;;;;;;;;;;16.90;40.70;;;;;;1562529;74;1137;-74
2024/01/15 07:29:29;;;;;;;;;;;17.00;40.70;;;;;;1563883;74;724;-78
2024/01/15 07:31:32;;;;;;;;;;;16.90;40.70;;;;;;1569052;74;715;-76
2024/01/15 07:33:34;;;;;;;;;;;16.90;40.80;;;;;;1568844;74;704;-76
2024/01/15 07:35:36;;;;;;;;;;;16.90;40.70;;;;;;1568918;74;722;-77
2024/01/15 07:37:38;;;;;;;;;;;16.90;40.70;;;;;;1567273;74;1186;-76
2024/01/15 07:39:40;;;;;;;;;;;16.90;40.60;;;;;;1573069;74;1942;-78
2024/01/15 07:41:41;;;;;;;;;;;16.90;40.60;;;;;;1567743;74;748;-75
2024/01/15 07:43:43;;;;;;;;;;;16.90;40.70;;;;;;1566397;75;744;-74
2024/01/15 07:45:45;;;;;;;;;;;17.00;40.60;;;;;;1568298;74;704;-79
2024/01/15 07:47:47;;;;;;;;;;;16.90;40.60;;;;;;1561264;74;1144;-74
2024/01/15 07:49:49;;;;;;;;;;;16.90;40.60;;;;;;1567337;74;639;-77
2024/01/15 07:51:51;;;;;;;;;;;16.90;40.60;;;;;;1568847;74;714;-78
2024/01/15 07:53:56;;;;;;;;;;;17.00;40.50;;;;;;1565579;75;704;-78
2024/01/15 07:55:58;;;;;;;;;;;16.90;40.60;;;;;;1563313;74;765;-79
2024/01/15 07:58:01;;;;;;;;;;;16.90;40.60;;;;;;1562534;74;1152;-74
2024/01/15 08:00:09;;;;;;;;;;;16.90;40.50;;;;;;1568516;75;1916;-78
2024/01/15 08:02:07;;;;;;;;;;;16.90;40.50;;;;;;1559891;74;1067;-79
2024/01/15 08:04:12;;;;;;;;;;;16.90;40.50;;;;;;1568126;74;1535;-79
2024/01/15 08:06:12;;;;;;;;;;;16.90;40.40;;;;;;1567043;74;935;-79
2024/01/15 08:08:14;;;;;;;;;;;16.90;40.40;;;;;;1566337;74;1164;-78
2024/01/15 08:10:16;;;;;;;;;;;16.90;40.60;;;;;;1565366;74;776;-77
2024/01/15 08:12:18;;;;;;;;;;;16.90;40.60;;;;;;1566000;74;736;-77
2024/01/15 08:14:20;;;;;;;;;;;16.90;40.40;;;;;;1567450;74;767;-78
2024/01/15 08:16:22;;;;;;;;;;;16.90;40.50;;;;;;1562855;74;763;-77
2024/01/15 08:18:24;;;;;;;;;;;16.90;40.40;;;;;;1562113;74;1153;-79
2024/01/15 08:20:25;;;;;;;;;;;16.90;40.40;;;;;;1555881;74;1948;-79
2024/01/15 08:22:27;;;;;;;;;;;16.90;40.40;;;;;;1561629;75;844;-79
2024/01/15 08:24:29;;;;;;;;;;;16.90;40.30;;;;;;1566019;74;687;-77
2024/01/15 08:26:32;;;;;;;;;;;16.90;40.40;;;;;;1555654;74;715;-77
2024/01/15 08:28:34;;;;;;;;;;;16.90;40.40;;;;;;1567811;74;807;-78
2024/01/15 08:30:35;;;;;;;;;;;16.90;40.30;;;;;;1563973;74;591;-79
2024/01/15 08:32:43;;;;;;;;;;;16.90;40.30;;;;;;1574282;74;725;-78
2024/01/15 08:34:47;;;;;;;;;;;16.90;40.20;;;;;;1572014;74;741;-79
2024/01/15 08:36:48;;;;;;;;;;;16.90;40.30;;;;;;1569892;74;1144;-79
2024/01/15 08:38:50;;;;;;;;;;;16.90;40.20;;;;;;1555833;74;730;-76
2024/01/15 08:40:53;;;;;;;;;;;16.90;40.30;;;;;;1558224;74;1955;-76
2024/01/15 08:42:55;;;;;;;;;;;16.90;40.40;;;;;;1569825;74;762;-79
2024/01/15 08:44:57;;;;;;;;;;;16.90;40.30;;;;;;1565541;74;698;-78
2024/01/15 08:46:59;;;;;;;;;;;16.90;40.30;;;;;;1564506;74;1171;-77
2024/01/15 08:49:00;;;;;;;;;;;16.90;40.30;;;;;;1554168;74;718;-78
2024/01/15 08:51:02;;;;;;;;;;;16.90;40.20;;;;;;1565708;74;666;-77
2024/01/15 08:53:05;;;;;;;;;;;16.90;40.20;;;;;;1559359;74;622;-79
2024/01/15 08:55:07;;;;;;;;;;;16.90;40.30;;;;;;1564289;74;613;-78
2024/01/15 08:57:09;;;;;;;;;;;16.90;40.30;;;;;;1566509;74;1156;-76
2024/01/15 08:59:11;;;;;;;;;;;16.90;40.30;;;;;;1566937;74;686;-78
2024/01/15 09:01:13;;;;;;;;;;;16.90;40.20;;;;;;1561679;74;1990;-76
2024/01/15 09:03:14;;;;;;;;;;;16.90;40.20;;;;;;1567459;74;715;-79
2024/01/15 09:05:16;;;;;;;;;;;16.90;40.40;;;;;;1560353;74;697;-78
2024/01/15 09:07:19;;;;;;;;;;;16.90;40.20;;;;;;1563665;74;1178;-78
2024/01/15 09:09:20;;;;;;;;;;;16.90;40.20;;;;;;1562628;74;713;-78
2024/01/15 09:11:22;;;;;;;;;;;16.90;40.20;;;;;;1566955;74;702;-79
2024/01/15 09:13:24;;;;;;;;;;;16.90;40.20;;;;;;1563141;74;725;-77
2024/01/15 09:15:26;;;;;;;;;;;16.80;40.10;;;;;;1559398;74;608;-79
2024/01/15 09:17:28;;;;;;;;;;;16.80;40.10;;;;;;1567037;74;1098;-77
2024/01/15 09:19:30;;;;;;;;;;;16.90;40.10;;;;;;1563641;74;1930;-79
2024/01/15 09:21:31;;;;;;;;;;;16.90;40.10;;;;;;1564474;74;720;-79
2024/01/15 09:23:33;;;;;;;;;;;16.90;40.20;;;;;;1566070;75;711;-78
2024/01/15 09:25:35;;;;;;;;;;;16.80;40.00;;;;;;1554353;74;741;-77
2024/01/15 09:27:37;;;;;;;;;;;16.90;40.20;;;;;;1567494;74;1133;-79
2024/01/15 09:29:45;;;;;;;;;;;16.90;40.10;;;;;;1567642;74;715;-78
2024/01/15 09:31:43;;;;;;;;;;;16.90;40.20;;;;;;1566064;74;989;-79
2024/01/15 09:33:44;;;;;;;;;;;16.90;40.30;;;;;;1570238;74;690;-79
2024/01/15 09:35:46;;;;;;;;;;;16.90;40.20;;;;;;1557641;74;753;-79
2024/01/15 09:37:48;;;;;;;;;;;16.90;40.10;;;;;;1571207;74;1131;-77
2024/01/15 09:39:50;;;;;;;;;;;16.90;40.10;;;;;;1576775;74;1946;-78
2024/01/15 09:41:52;;;;;;;;;;;16.80;40.00;;;;;;1573731;74;679;-77
2024/01/15 09:43:54;;;;;;;;;;;16.80;40.00;;;;;;1562262;74;627;-78
2024/01/15 09:45:56;;;;;;;;;;;16.80;40.00;;;;;;1567093;74;727;-76
2024/01/15 09:47:58;;;;;;;;;;;16.90;40.20;;;;;;1566750;74;1305;-79
2024/01/15 09:50:00;;;;;;;;;;;16.90;40.00;;;;;;1560082;74;594;-79
2024/01/15 09:52:02;;;;;;;;;;;16.80;40.00;;;;;;1563904;74;748;-79
2024/01/15 09:54:04;;;;;;;;;;;16.80;39.90;;;;;;1560412;74;671;-76
2024/01/15 09:56:06;;;;;;;;;;;16.90;40.00;;;;;;1558837;74;1454;-77
2024/01/15 09:58:08;;;;;;;;;;;16.80;39.90;;;;;;1557302;74;1144;-79
2024/01/15 10:00:10;;;;;;;;;;;16.80;40.00;;;;;;1560974;74;1931;-79
2024/01/15 10:02:14;;;;;;;;;;;16.80;39.90;;;;;;1570922;74;733;-79
2024/01/15 10:04:16;;;;;;;;;;;16.80;39.90;;;;;;1570917;74;745;-78
2024/01/15 10:06:18;;;;;;;;;;;16.80;40.00;;;;;;1556128;74;703;-77
2024/01/15 10:08:20;;;;;;;;;;;16.80;39.90;;;;;;1566861;74;1095;-79
2024/01/15 10:10:22;;;;;;;;;;;16.90;40.00;;;;;;1568749;74;587;-79
2024/01/15 10:12:23;;;;;;;;;;;16.90;40.00;;;;;;1568448;74;657;-78
2024/01/15 10:14:25;;;;;;;;;;;16.80;39.90;;;;;;1557813;74;751;-74
2024/01/15 10:16:27;;;;;;;;;;;16.80;39.90;;;;;;1571238;74;743;-79
2024/01/15 10:18:29;;;;;;;;;;;16.80;39.90;;;;;;1562133;75;1159;-73
2024/01/15 10:20:32;;;;;;;;;;;16.80;40.00;;;;;;1576889;74;1941;-78
2024/01/15 10:22:34;;;;;;;;;;;16.80;39.90;;;;;;1567133;74;713;-77
2024/01/15 10:24:40;;;;;;;;;;;16.80;39.90;;;;;;1568072;75;703;-77
2024/01/15 10:26:42;;;;;;;;;;;16.80;39.90;;;;;;1554441;74;1159;-77
2024/01/15 10:28:44;;;;;;;;;;;16.80;39.80;;;;;;1562269;74;641;-76
2024/01/15 10:30:46;;;;;;;;;;;16.80;39.90;;;;;;1569584;74;738;-78
2024/01/15 10:32:49;;;;;;;;;;;16.80;39.80;;;;;;1578404;74;717;-79
2024/01/15 10:34:52;;;;;;;;;;;16.80;39.80;;;;;;1567670;74;939;-79
2024/01/15 10:36:57;;;;;;;;;;;16.80;39.80;;;;;;1565023;74;1140;-80
2024/01/15 10:38:59;;;;;;;;;;;16.80;39.80;;;;;;1558401;74;778;-79
2024/01/15 10:41:01;;;;;;;;;;;16.80;39.80;;;;;;1565104;74;1929;-74
2024/01/15 10:43:04;;;;;;;;;;;16.80;39.80;;;;;;1569182;74;617;-79
2024/01/15 10:45:08;;;;;;;;;;;16.80;39.90;;;;;;1572782;74;718;-79
2024/01/15 10:47:09;;;;;;;;;;;16.80;39.90;;;;;;1561729;75;1157;-79
2024/01/15 10:49:11;;;;;;;;;;;16.80;39.80;;;;;;1573349;74;732;-79
2024/01/15 10:51:15;;;;;;;;;;;16.80;39.80;;;;;;1562532;74;712;-80
2024/01/15 10:53:17;;;;;;;;;;;16.80;39.80;;;;;;1564973;74;1454;-79
2024/01/15 10:55:19;;;;;;;;;;;16.80;39.80;;;;;;1572492;74;714;-79
2024/01/15 10:57:22;;;;;;;;;;;16.80;39.90;;;;;;1569496;74;1152;-78
2024/01/15 10:59:24;;;;;;;;;;;16.80;39.80;;;;;;1575003;74;717;-79
2024/01/15 11:01:26;;;;;;;;;;;16.70;40.00;;;;;;1560602;74;1925;-77
2024/01/15 11:03:27;;;;;;;;;;;16.80;39.80;;;;;;1568339;75;695;-78
2024/01/15 11:05:29;;;;;;;;;;;16.80;39.90;;;;;;1565126;75;716;-76
2024/01/15 11:07:31;;;;;;;;;;;16.80;39.80;;;;;;1563740;74;1146;-79
2024/01/15 11:09:33;;;;;;;;;;;16.70;39.80;;;;;;1568352;74;739;-75
2024/01/15 11:11:39;;;;;;;;;;;16.80;39.70;;;;;;1560781;74;693;-80
2024/01/15 11:13:43;;;;;;;;;;;16.80;39.80;;;;;;1568383;75;912;-77
2024/01/15 11:15:58;;;;;;;;;;;16.70;39.80;;;;;;1566737;74;695;-78
2024/01/15 11:18:05;;;;;;;;;;;16.80;39.80;;;;;;1568376;74;1155;-77
2024/01/15 11:20:05;;;;;;;;;;;16.70;39.80;;;;;;1566164;74;1145;-77
2024/01/15 11:22:09;;;;;;;;;;;16.80;39.70;;;;;;1530050;76;1111;-78
2024/01/15 11:24:12;;;;;;;;;;;16.80;39.80;;;;;;1569223;74;769;-79
2024/01/15 11:26:29;;;;;;;;;;;16.80;39.70;;;;;;1566229;74;699;-80
2024/01/15 11:28:49;;;;;;;;;;;16.80;39.70;;;;;;1569140;74;1190;-79
2024/01/15 11:30:51;;;;;;;;;;;16.80;39.80;;;;;;1566238;74;760;-81
2024/01/15 11:32:53;;;;;;;;;;;16.80;39.70;;;;;;1563021;74;733;-79
2024/01/15 11:34:58;;;;;;;;;;;16.70;39.70;;;;;;1569312;74;716;-81
2024/01/15 11:37:03;;;;;;;;;;;16.80;39.80;;;;;;1558169;74;1197;-77
2024/01/15 11:39:23;;;;;;;;;;;16.80;39.70;;;;;;1568862;74;750;-77
2024/01/15 11:41:25;;;;;;;;;;;16.80;39.70;;;;;;1558620;74;1908;-76
2024/01/15 11:43:27;;;;;;;;;;;16.80;39.70;;;;;;1562292;74;716;-76
2024/01/15 11:45:29;;;;;;;;;;;16.70;39.60;;;;;;1570966;74;710;-78
2024/01/15 11:47:48;;;;;;;;;;;16.70;39.60;;;;;;1567596;74;1220;-77
2024/01/15 11:49:51;;;;;;;;;;;16.80;39.60;;;;;;1566966;74;1620;-73
2024/01/15 11:51:53;;;;;;;;;;;16.70;39.70;;;;;;1556431;75;731;-78
2024/01/15 11:53:55;;;;;;;;;;;16.70;39.60;;;;;;1561438;74;701;-78
2024/01/15 11:55:58;;;;;;;;;;;16.70;39.60;;;;;;1556179;75;603;-78
2024/01/15 11:58:01;;;;;;;;;;;16.70;39.60;;;;;;1561470;75;1138;-79
2024/01/15 12:00:03;;;;;;;;;;;16.80;39.60;;;;;;1570718;74;741;-79
2024/01/15 12:02:05;;;;;;;;;;;16.80;39.70;;;;;;1563934;74;1919;-79
2024/01/15 12:04:07;;;;;;;;;;;16.70;39.60;;;;;;1560486;75;719;-80
2024/01/15 12:06:10;;;;;;;;;;;16.80;39.60;;;;;;1527603;76;992;-80
2024/01/15 12:08:12;;;;;;;;;;;16.80;39.60;;;;;;1566250;74;1144;-77
2024/01/15 12:10:14;;;;;;;;;;;16.80;39.60;;;;;;1567735;74;608;-79